This is the latest recevied weather packets stored in our database for station/object DO7ZT-10. If no packets are shown the sender has not sent any weather packets the latest 10 day(s).
| Time | Temp. | Humidity | Pressure | Rain* | Wind** | Luminosity | Snow |
|---|---|---|---|---|---|---|---|
| 1787821299 | 21.67° C | 55% | 1020.6 hPa | - | - | - | - |
| 1787820399 | 21.11° C | 57% | 1020.5 hPa | - | - | - | - |
| 1787819499 | 20.56° C | 61% | 1020.5 hPa | - | - | - | - |
| 1787818599 | 20° C | 61% | 1020.8 hPa | - | - | - | - |
| 1787817699 | 19.44° C | 65% | 1020.7 hPa | - | - | - | - |
| 1787816799 | 18.89° C | 64% | 1020.8 hPa | - | - | - | - |
| 1787815899 | 18.33° C | 65% | 1020.8 hPa | - | - | - | - |
| 1787814999 | 18.33° C | 66% | 1020.9 hPa | - | - | - | - |
| 1787814099 | 17.78° C | 67% | 1020.8 hPa | - | - | - | - |
| 1787813199 | 17.22° C | 70% | 1020.7 hPa | - | - | - | - |
| 1787812298 | 16.67° C | 70% | 1020.6 hPa | - | - | - | - |
| 1787811398 | 16.11° C | 73% | 1020.5 hPa | - | - | - | - |
| 1787810498 | 15.56° C | 73% | 1020.5 hPa | - | - | - | - |
| 1787809598 | 15.56° C | 74% | 1020.4 hPa | - | - | - | - |
| 1787808698 | 15° C | 75% | 1020.4 hPa | - | - | - | - |
| 1787807798 | 14.44° C | 76% | 1020.5 hPa | - | - | - | - |
| 1787806898 | 13.89° C | 79% | 1020.7 hPa | - | - | - | - |
| 1787805998 | 13.33° C | 80% | 1020.7 hPa | - | - | - | - |
| 1787805098 | 13.33° C | 79% | 1020.6 hPa | - | - | - | - |
| 1787804198 | 13.89° C | 78% | 1020.5 hPa | - | - | - | - |
| 1787803298 | 13.89° C | 77% | 1020.6 hPa | - | - | - | - |
| 1787802398 | 14.44° C | 74% | 1020.5 hPa | - | - | - | - |
| 1787801498 | 14.44° C | 75% | 1020.5 hPa | - | - | - | - |
| 1787800598 | 15° C | 74% | 1020.5 hPa | - | - | - | - |
| 1787799697 | 14.44° C | 75% | 1020.5 hPa | - | - | - | - |
* Rain since midnight (hover to see other rain measurements)
** Current wind speed in m/s (hover to see current wind gust speed)